sensor_id;sensor_type;location;lat;lon;timestamp;temperature;humidity
48978;DHT22;34793;48.940;2.618;2022-10-31T00:00:15;20.40;79.20
48978;DHT22;34793;48.940;2.618;2022-10-31T00:02:41;20.40;79.30
48978;DHT22;34793;48.940;2.618;2022-10-31T00:05:06;20.30;79.40
48978;DHT22;34793;48.940;2.618;2022-10-31T00:07:41;20.30;79.10
48978;DHT22;34793;48.940;2.618;2022-10-31T00:10:07;20.30;79.10
48978;DHT22;34793;48.940;2.618;2022-10-31T00:12:32;20.30;79.30
48978;DHT22;34793;48.940;2.618;2022-10-31T00:14:58;20.20;80.00
48978;DHT22;34793;48.940;2.618;2022-10-31T00:17:23;20.10;79.80
48978;DHT22;34793;48.940;2.618;2022-10-31T00:19:49;20.10;79.70
48978;DHT22;34793;48.940;2.618;2022-10-31T00:22:14;20.10;79.50
48978;DHT22;34793;48.940;2.618;2022-10-31T00:24:40;20.10;80.10
48978;DHT22;34793;48.940;2.618;2022-10-31T00:27:05;20.10;79.50
48978;DHT22;34793;48.940;2.618;2022-10-31T00:29:31;20.10;79.40
48978;DHT22;34793;48.940;2.618;2022-10-31T00:31:56;20.10;79.30
48978;DHT22;34793;48.940;2.618;2022-10-31T00:34:21;20.00;79.20
48978;DHT22;34793;48.940;2.618;2022-10-31T00:36:47;20.00;79.40
48978;DHT22;34793;48.940;2.618;2022-10-31T00:39:12;20.00;79.50
48978;DHT22;34793;48.940;2.618;2022-10-31T00:41:38;20.00;79.40
48978;DHT22;34793;48.940;2.618;2022-10-31T00:44:03;19.90;79.40
48978;DHT22;34793;48.940;2.618;2022-10-31T00:46:29;19.90;79.70
48978;DHT22;34793;48.940;2.618;2022-10-31T00:48:54;19.90;79.80
48978;DHT22;34793;48.940;2.618;2022-10-31T00:51:20;19.90;79.30
48978;DHT22;34793;48.940;2.618;2022-10-31T00:56:33;19.90;79.40
48978;DHT22;34793;48.940;2.618;2022-10-31T00:58:58;19.80;79.40
48978;DHT22;34793;48.940;2.618;2022-10-31T01:01:23;19.80;79.90
48978;DHT22;34793;48.940;2.618;2022-10-31T01:03:49;19.70;79.30
48978;DHT22;34793;48.940;2.618;2022-10-31T01:06:14;19.70;79.40
48978;DHT22;34793;48.940;2.618;2022-10-31T01:08:41;19.70;79.50
48978;DHT22;34793;48.940;2.618;2022-10-31T01:13:32;19.60;79.70
48978;DHT22;34793;48.940;2.618;2022-10-31T01:15:58;19.60;79.80
48978;DHT22;34793;48.940;2.618;2022-10-31T01:18:24;19.70;80.10
48978;DHT22;34793;48.940;2.618;2022-10-31T01:20:59;19.70;80.80
48978;DHT22;34793;48.940;2.618;2022-10-31T01:23:25;19.70;80.60
48978;DHT22;34793;48.940;2.618;2022-10-31T01:25:58;19.70;80.70
48978;DHT22;34793;48.940;2.618;2022-10-31T01:28:24;19.70;80.70
48978;DHT22;34793;48.940;2.618;2022-10-31T01:30:49;19.60;81.40
48978;DHT22;34793;48.940;2.618;2022-10-31T01:33:14;19.60;81.00
48978;DHT22;34793;48.940;2.618;2022-10-31T01:35:40;19.60;81.20
48978;DHT22;34793;48.940;2.618;2022-10-31T01:38:05;19.60;81.00
48978;DHT22;34793;48.940;2.618;2022-10-31T01:40:31;19.70;80.70
48978;DHT22;34793;48.940;2.618;2022-10-31T01:42:56;19.70;80.80
48978;DHT22;34793;48.940;2.618;2022-10-31T01:45:22;19.70;81.40
48978;DHT22;34793;48.940;2.618;2022-10-31T01:47:47;19.70;81.40
48978;DHT22;34793;48.940;2.618;2022-10-31T01:50:17;19.70;80.90
48978;DHT22;34793;48.940;2.618;2022-10-31T01:52:47;19.70;81.00
48978;DHT22;34793;48.940;2.618;2022-10-31T01:55:20;19.80;81.30
48978;DHT22;34793;48.940;2.618;2022-10-31T01:57:48;19.80;80.90
48978;DHT22;34793;48.940;2.618;2022-10-31T02:00:14;19.80;81.10
48978;DHT22;34793;48.940;2.618;2022-10-31T02:02:40;19.80;81.00
48978;DHT22;34793;48.940;2.618;2022-10-31T02:05:08;19.80;81.20
48978;DHT22;34793;48.940;2.618;2022-10-31T02:07:54;19.80;81.00
48978;DHT22;34793;48.940;2.618;2022-10-31T02:10:21;19.80;80.90
48978;DHT22;34793;48.940;2.618;2022-10-31T02:12:47;19.80;81.20
48978;DHT22;34793;48.940;2.618;2022-10-31T02:15:12;19.80;81.50
48978;DHT22;34793;48.940;2.618;2022-10-31T02:17:38;19.80;81.50
48978;DHT22;34793;48.940;2.618;2022-10-31T02:28:52;20.00;80.30
48978;DHT22;34793;48.940;2.618;2022-10-31T02:31:00;20.00;80.70
48978;DHT22;34793;48.940;2.618;2022-10-31T02:33:31;20.00;80.60
48978;DHT22;34793;48.940;2.618;2022-10-31T02:36:16;20.00;80.80
48978;DHT22;34793;48.940;2.618;2022-10-31T02:46:50;20.00;80.60
48978;DHT22;34793;48.940;2.618;2022-10-31T02:49:21;20.00;80.40
48978;DHT22;34793;48.940;2.618;2022-10-31T02:51:48;20.00;80.30
48978;DHT22;34793;48.940;2.618;2022-10-31T02:54:17;20.10;80.40
48978;DHT22;34793;48.940;2.618;2022-10-31T02:56:43;20.10;80.40
48978;DHT22;34793;48.940;2.618;2022-10-31T02:59:09;20.10;80.50
48978;DHT22;34793;48.940;2.618;2022-10-31T03:12:07;20.00;80.70
48978;DHT22;34793;48.940;2.618;2022-10-31T03:17:09;20.00;80.60
48978;DHT22;34793;48.940;2.618;2022-10-31T03:19:41;20.10;80.60
48978;DHT22;34793;48.940;2.618;2022-10-31T03:22:09;20.10;80.70
48978;DHT22;34793;48.940;2.618;2022-10-31T03:24:35;20.10;80.70
48978;DHT22;34793;48.940;2.618;2022-10-31T03:27:02;20.10;80.50
48978;DHT22;34793;48.940;2.618;2022-10-31T03:29:34;20.10;80.50
48978;DHT22;34793;48.940;2.618;2022-10-31T03:32:02;20.10;80.60
48978;DHT22;34793;48.940;2.618;2022-10-31T03:34:28;20.00;80.80
48978;DHT22;34793;48.940;2.618;2022-10-31T03:36:56;20.00;80.60
48978;DHT22;34793;48.940;2.618;2022-10-31T03:39:22;20.00;80.50
48978;DHT22;34793;48.940;2.618;2022-10-31T03:41:56;20.00;80.70
48978;DHT22;34793;48.940;2.618;2022-10-31T03:44:22;20.00;81.10
48978;DHT22;34793;48.940;2.618;2022-10-31T03:46:48;19.90;80.90
48978;DHT22;34793;48.940;2.618;2022-10-31T03:49:14;19.90;81.20
48978;DHT22;34793;48.940;2.618;2022-10-31T03:51:43;20.00;80.90
48978;DHT22;34793;48.940;2.618;2022-10-31T03:54:14;20.00;81.10
48978;DHT22;34793;48.940;2.618;2022-10-31T03:56:46;20.00;81.50
48978;DHT22;34793;48.940;2.618;2022-10-31T03:59:16;20.00;80.90
48978;DHT22;34793;48.940;2.618;2022-10-31T04:01:44;19.90;81.00
48978;DHT22;34793;48.940;2.618;2022-10-31T04:04:11;19.90;81.40
48978;DHT22;34793;48.940;2.618;2022-10-31T04:06:38;19.90;81.30
48978;DHT22;34793;48.940;2.618;2022-10-31T04:09:04;20.00;81.60
48978;DHT22;34793;48.940;2.618;2022-10-31T04:11:33;20.00;81.80
48978;DHT22;34793;48.940;2.618;2022-10-31T04:13:59;20.00;81.10
48978;DHT22;34793;48.940;2.618;2022-10-31T04:16:26;20.00;81.40
48978;DHT22;34793;48.940;2.618;2022-10-31T04:18:52;20.00;81.30
48978;DHT22;34793;48.940;2.618;2022-10-31T04:21:18;20.00;81.20
48978;DHT22;34793;48.940;2.618;2022-10-31T04:23:43;20.00;81.10
48978;DHT22;34793;48.940;2.618;2022-10-31T04:26:10;20.00;81.00
48978;DHT22;34793;48.940;2.618;2022-10-31T04:28:36;20.00;81.10
48978;DHT22;34793;48.940;2.618;2022-10-31T04:34:05;20.00;81.10
48978;DHT22;34793;48.940;2.618;2022-10-31T04:36:30;20.00;81.40
48978;DHT22;34793;48.940;2.618;2022-10-31T04:38:56;19.90;81.60
48978;DHT22;34793;48.940;2.618;2022-10-31T04:41:21;19.90;81.10
48978;DHT22;34793;48.940;2.618;2022-10-31T04:43:47;19.90;81.80
48978;DHT22;34793;48.940;2.618;2022-10-31T04:46:12;19.90;81.70
48978;DHT22;34793;48.940;2.618;2022-10-31T04:48:38;19.80;82.30
48978;DHT22;34793;48.940;2.618;2022-10-31T04:51:03;19.70;82.90
48978;DHT22;34793;48.940;2.618;2022-10-31T04:53:29;19.50;83.30
48978;DHT22;34793;48.940;2.618;2022-10-31T04:55:54;19.60;83.30
48978;DHT22;34793;48.940;2.618;2022-10-31T04:58:20;19.70;82.90
48978;DHT22;34793;48.940;2.618;2022-10-31T05:00:45;19.70;83.50
48978;DHT22;34793;48.940;2.618;2022-10-31T05:03:11;19.70;83.50
48978;DHT22;34793;48.940;2.618;2022-10-31T05:05:36;19.70;83.90
48978;DHT22;34793;48.940;2.618;2022-10-31T05:08:02;19.80;83.40
48978;DHT22;34793;48.940;2.618;2022-10-31T05:10:28;19.70;83.70
48978;DHT22;34793;48.940;2.618;2022-10-31T05:12:55;19.60;84.10
48978;DHT22;34793;48.940;2.618;2022-10-31T05:15:22;19.70;83.80
48978;DHT22;34793;48.940;2.618;2022-10-31T05:17:48;19.80;83.50
48978;DHT22;34793;48.940;2.618;2022-10-31T05:20:14;19.60;84.40
48978;DHT22;34793;48.940;2.618;2022-10-31T05:22:43;19.60;84.80
48978;DHT22;34793;48.940;2.618;2022-10-31T05:25:08;19.60;84.70
48978;DHT22;34793;48.940;2.618;2022-10-31T05:27:34;19.60;84.70
48978;DHT22;34793;48.940;2.618;2022-10-31T05:29:59;19.70;84.30
48978;DHT22;34793;48.940;2.618;2022-10-31T05:32:25;19.70;83.70
48978;DHT22;34793;48.940;2.618;2022-10-31T05:34:50;19.80;83.90
48978;DHT22;34793;48.940;2.618;2022-10-31T05:37:16;19.70;84.20
48978;DHT22;34793;48.940;2.618;2022-10-31T05:39:41;19.80;83.80
48978;DHT22;34793;48.940;2.618;2022-10-31T05:42:07;19.80;84.50
48978;DHT22;34793;48.940;2.618;2022-10-31T05:44:32;19.80;84.10
48978;DHT22;34793;48.940;2.618;2022-10-31T05:46:57;19.70;84.70
48978;DHT22;34793;48.940;2.618;2022-10-31T05:49:23;19.80;83.80
48978;DHT22;34793;48.940;2.618;2022-10-31T05:51:48;19.90;83.30
48978;DHT22;34793;48.940;2.618;2022-10-31T05:54:14;20.00;83.50
48978;DHT22;34793;48.940;2.618;2022-10-31T05:56:39;19.90;83.70
48978;DHT22;34793;48.940;2.618;2022-10-31T05:59:05;19.50;85.40
48978;DHT22;34793;48.940;2.618;2022-10-31T06:01:30;19.40;86.20
48978;DHT22;34793;48.940;2.618;2022-10-31T06:03:56;19.40;86.30
48978;DHT22;34793;48.940;2.618;2022-10-31T06:06:21;19.30;86.60
48978;DHT22;34793;48.940;2.618;2022-10-31T06:08:46;19.20;87.60
48978;DHT22;34793;48.940;2.618;2022-10-31T06:11:12;19.30;87.10
48978;DHT22;34793;48.940;2.618;2022-10-31T06:13:37;19.40;86.50
48978;DHT22;34793;48.940;2.618;2022-10-31T06:16:12;19.30;87.20
48978;DHT22;34793;48.940;2.618;2022-10-31T06:18:37;19.50;85.60
48978;DHT22;34793;48.940;2.618;2022-10-31T06:21:03;19.60;85.70
48978;DHT22;34793;48.940;2.618;2022-10-31T06:23:28;19.70;85.10
48978;DHT22;34793;48.940;2.618;2022-10-31T06:25:54;19.80;84.30
48978;DHT22;34793;48.940;2.618;2022-10-31T06:28:20;19.90;84.30
48978;DHT22;34793;48.940;2.618;2022-10-31T06:30:46;20.00;83.90
48978;DHT22;34793;48.940;2.618;2022-10-31T06:33:11;20.10;83.50
48978;DHT22;34793;48.940;2.618;2022-10-31T06:35:37;20.20;82.70
48978;DHT22;34793;48.940;2.618;2022-10-31T06:38:02;20.20;83.00
48978;DHT22;34793;48.940;2.618;2022-10-31T06:40:27;20.10;83.10
48978;DHT22;34793;48.940;2.618;2022-10-31T06:42:59;20.10;82.80
48978;DHT22;34793;48.940;2.618;2022-10-31T06:45:25;20.10;83.20
48978;DHT22;34793;48.940;2.618;2022-10-31T06:47:53;20.00;83.30
48978;DHT22;34793;48.940;2.618;2022-10-31T06:50:20;20.00;84.00
48978;DHT22;34793;48.940;2.618;2022-10-31T06:52:54;20.10;83.80
48978;DHT22;34793;48.940;2.618;2022-10-31T06:55:21;20.10;83.70
48978;DHT22;34793;48.940;2.618;2022-10-31T06:57:51;20.10;83.30
48978;DHT22;34793;48.940;2.618;2022-10-31T07:00:17;20.20;83.20
48978;DHT22;34793;48.940;2.618;2022-10-31T07:02:43;20.20;83.10
48978;DHT22;34793;48.940;2.618;2022-10-31T07:05:08;20.30;83.20
48978;DHT22;34793;48.940;2.618;2022-10-31T07:07:33;20.20;83.60
48978;DHT22;34793;48.940;2.618;2022-10-31T07:09:59;20.20;83.60
48978;DHT22;34793;48.940;2.618;2022-10-31T07:12:24;20.20;83.20
48978;DHT22;34793;48.940;2.618;2022-10-31T07:14:50;20.30;83.70
48978;DHT22;34793;48.940;2.618;2022-10-31T07:17:15;20.20;83.50
48978;DHT22;34793;48.940;2.618;2022-10-31T07:19:41;20.30;83.80
48978;DHT22;34793;48.940;2.618;2022-10-31T07:22:06;20.40;83.40
48978;DHT22;34793;48.940;2.618;2022-10-31T07:24:32;20.40;83.60
48978;DHT22;34793;48.940;2.618;2022-10-31T07:26:57;20.40;83.30
48978;DHT22;34793;48.940;2.618;2022-10-31T07:29:24;20.40;83.80
48978;DHT22;34793;48.940;2.618;2022-10-31T07:31:50;20.50;83.40
48978;DHT22;34793;48.940;2.618;2022-10-31T07:34:15;20.50;82.80
48978;DHT22;34793;48.940;2.618;2022-10-31T07:36:41;20.50;83.60
48978;DHT22;34793;48.940;2.618;2022-10-31T07:39:06;20.60;83.10
48978;DHT22;34793;48.940;2.618;2022-10-31T07:41:32;20.60;82.80
48978;DHT22;34793;48.940;2.618;2022-10-31T07:43:57;20.60;82.60
48978;DHT22;34793;48.940;2.618;2022-10-31T07:46:23;20.50;83.50
48978;DHT22;34793;48.940;2.618;2022-10-31T07:48:48;20.60;82.80
48978;DHT22;34793;48.940;2.618;2022-10-31T07:51:14;20.50;83.50
48978;DHT22;34793;48.940;2.618;2022-10-31T07:53:39;20.50;83.30
48978;DHT22;34793;48.940;2.618;2022-10-31T07:56:05;20.50;84.00
48978;DHT22;34793;48.940;2.618;2022-10-31T07:58:30;20.40;84.80
48978;DHT22;34793;48.940;2.618;2022-10-31T08:00:57;20.40;84.20
48978;DHT22;34793;48.940;2.618;2022-10-31T08:03:22;20.40;84.70
48978;DHT22;34793;48.940;2.618;2022-10-31T08:05:48;20.40;84.70
48978;DHT22;34793;48.940;2.618;2022-10-31T08:08:13;20.40;84.50
48978;DHT22;34793;48.940;2.618;2022-10-31T08:10:39;20.20;85.60
48978;DHT22;34793;48.940;2.618;2022-10-31T08:13:06;20.30;85.70
48978;DHT22;34793;48.940;2.618;2022-10-31T08:15:32;20.40;85.20
48978;DHT22;34793;48.940;2.618;2022-10-31T08:17:59;20.60;84.90
48978;DHT22;34793;48.940;2.618;2022-10-31T08:20:25;20.60;84.50
48978;DHT22;34793;48.940;2.618;2022-10-31T08:23:00;20.50;85.00
48978;DHT22;34793;48.940;2.618;2022-10-31T08:25:27;20.40;85.40
48978;DHT22;34793;48.940;2.618;2022-10-31T08:27:53;20.40;85.60
48978;DHT22;34793;48.940;2.618;2022-10-31T08:30:19;20.30;85.60
48978;DHT22;34793;48.940;2.618;2022-10-31T08:32:45;20.40;85.70
48978;DHT22;34793;48.940;2.618;2022-10-31T08:35:11;20.50;85.80
48978;DHT22;34793;48.940;2.618;2022-10-31T08:37:36;20.60;85.90
48978;DHT22;34793;48.940;2.618;2022-10-31T08:40:02;20.80;84.80
48978;DHT22;34793;48.940;2.618;2022-10-31T08:42:27;20.70;85.20
48978;DHT22;34793;48.940;2.618;2022-10-31T08:44:53;20.60;85.90
48978;DHT22;34793;48.940;2.618;2022-10-31T08:47:18;20.70;85.90
48978;DHT22;34793;48.940;2.618;2022-10-31T08:49:44;20.80;86.30
48978;DHT22;34793;48.940;2.618;2022-10-31T08:52:09;20.90;85.50
48978;DHT22;34793;48.940;2.618;2022-10-31T08:54:34;20.80;86.30
48978;DHT22;34793;48.940;2.618;2022-10-31T08:57:00;20.90;86.10
48978;DHT22;34793;48.940;2.618;2022-10-31T08:59:26;21.00;85.60
48978;DHT22;34793;48.940;2.618;2022-10-31T09:01:51;21.20;86.50
48978;DHT22;34793;48.940;2.618;2022-10-31T09:04:16;20.80;86.30
48978;DHT22;34793;48.940;2.618;2022-10-31T09:06:42;20.70;87.30
48978;DHT22;34793;48.940;2.618;2022-10-31T09:09:07;20.60;87.70
48978;DHT22;34793;48.940;2.618;2022-10-31T09:11:33;20.70;87.60
48978;DHT22;34793;48.940;2.618;2022-10-31T09:13:58;20.80;87.50
48978;DHT22;34793;48.940;2.618;2022-10-31T09:16:24;20.50;88.10
48978;DHT22;34793;48.940;2.618;2022-10-31T09:18:49;20.60;88.30
48978;DHT22;34793;48.940;2.618;2022-10-31T09:21:15;20.70;88.30
48978;DHT22;34793;48.940;2.618;2022-10-31T09:23:40;20.60;87.90
48978;DHT22;34793;48.940;2.618;2022-10-31T09:26:06;20.60;88.40
48978;DHT22;34793;48.940;2.618;2022-10-31T09:28:31;20.80;88.60
48978;DHT22;34793;48.940;2.618;2022-10-31T09:30:57;20.60;88.90
48978;DHT22;34793;48.940;2.618;2022-10-31T09:33:23;20.70;88.90
48978;DHT22;34793;48.940;2.618;2022-10-31T09:35:48;20.90;88.20
48978;DHT22;34793;48.940;2.618;2022-10-31T09:38:15;21.00;87.90
48978;DHT22;34793;48.940;2.618;2022-10-31T09:40:42;21.20;88.60
48978;DHT22;34793;48.940;2.618;2022-10-31T09:43:12;21.00;87.80
48978;DHT22;34793;48.940;2.618;2022-10-31T09:45:41;21.30;87.90
48978;DHT22;34793;48.940;2.618;2022-10-31T09:50:48;21.30;86.40
48978;DHT22;34793;48.940;2.618;2022-10-31T09:53:18;21.60;87.90
48978;DHT22;34793;48.940;2.618;2022-10-31T09:55:45;21.70;87.70
48978;DHT22;34793;48.940;2.618;2022-10-31T09:58:17;22.00;86.10
48978;DHT22;34793;48.940;2.618;2022-10-31T10:00:43;22.30;86.30
48978;DHT22;34793;48.940;2.618;2022-10-31T10:05:40;22.50;84.70
48978;DHT22;34793;48.940;2.618;2022-10-31T10:10:51;22.80;84.30
48978;DHT22;34793;48.940;2.618;2022-10-31T10:23:35;23.40;83.30
48978;DHT22;34793;48.940;2.618;2022-10-31T10:26:20;23.60;82.20
48978;DHT22;34793;48.940;2.618;2022-10-31T10:28:52;24.00;82.20
48978;DHT22;34793;48.940;2.618;2022-10-31T10:31:21;24.30;79.10
48978;DHT22;34793;48.940;2.618;2022-10-31T10:33:57;24.20;78.90
48978;DHT22;34793;48.940;2.618;2022-10-31T10:36:29;23.60;78.70
48978;DHT22;34793;48.940;2.618;2022-10-31T10:38:59;23.40;80.10
48978;DHT22;34793;48.940;2.618;2022-10-31T10:41:28;23.10;82.20
48978;DHT22;34793;48.940;2.618;2022-10-31T10:43:55;23.30;82.00
48978;DHT22;34793;48.940;2.618;2022-10-31T10:49:27;23.60;79.70
48978;DHT22;34793;48.940;2.618;2022-10-31T10:52:07;23.60;79.70
48978;DHT22;34793;48.940;2.618;2022-10-31T10:54:43;23.70;80.50
48978;DHT22;34793;48.940;2.618;2022-10-31T10:57:14;23.90;81.20
48978;DHT22;34793;48.940;2.618;2022-10-31T10:59:43;24.30;81.10
48978;DHT22;34793;48.940;2.618;2022-10-31T11:02:42;24.60;79.30
48978;DHT22;34793;48.940;2.618;2022-10-31T11:05:01;24.90;80.50
48978;DHT22;34793;48.940;2.618;2022-10-31T11:07:37;24.90;77.80
48978;DHT22;34793;48.940;2.618;2022-10-31T11:10:03;24.70;78.70
48978;DHT22;34793;48.940;2.618;2022-10-31T11:12:32;25.40;77.40
48978;DHT22;34793;48.940;2.618;2022-10-31T11:15:02;25.40;76.30
48978;DHT22;34793;48.940;2.618;2022-10-31T11:17:30;25.60;75.70
48978;DHT22;34793;48.940;2.618;2022-10-31T11:22:28;25.90;73.60
48978;DHT22;34793;48.940;2.618;2022-10-31T11:24:54;25.80;74.00
48978;DHT22;34793;48.940;2.618;2022-10-31T11:27:20;25.70;75.00
48978;DHT22;34793;48.940;2.618;2022-10-31T11:29:46;25.70;74.00
48978;DHT22;34793;48.940;2.618;2022-10-31T11:32:17;25.90;75.70
48978;DHT22;34793;48.940;2.618;2022-10-31T11:34:43;26.20;75.90
48978;DHT22;34793;48.940;2.618;2022-10-31T11:37:14;26.60;75.10
48978;DHT22;34793;48.940;2.618;2022-10-31T11:39:41;27.10;73.80
48978;DHT22;34793;48.940;2.618;2022-10-31T11:42:08;27.30;72.00
48978;DHT22;34793;48.940;2.618;2022-10-31T11:44:34;27.50;73.50
48978;DHT22;34793;48.940;2.618;2022-10-31T11:47:00;27.60;73.10
48978;DHT22;34793;48.940;2.618;2022-10-31T11:52:05;27.50;71.30
48978;DHT22;34793;48.940;2.618;2022-10-31T11:54:34;27.40;72.70
48978;DHT22;34793;48.940;2.618;2022-10-31T11:57:03;27.40;72.90
48978;DHT22;34793;48.940;2.618;2022-10-31T11:59:32;27.20;72.20
48978;DHT22;34793;48.940;2.618;2022-10-31T12:01:59;27.30;72.20
48978;DHT22;34793;48.940;2.618;2022-10-31T12:06:56;27.30;72.10
48978;DHT22;34793;48.940;2.618;2022-10-31T12:09:23;27.30;71.20
48978;DHT22;34793;48.940;2.618;2022-10-31T12:11:59;27.40;70.50
48978;DHT22;34793;48.940;2.618;2022-10-31T12:17:15;27.70;69.30
48978;DHT22;34793;48.940;2.618;2022-10-31T12:25:00;27.10;69.70
48978;DHT22;34793;48.940;2.618;2022-10-31T12:27:35;26.70;69.90
48978;DHT22;34793;48.940;2.618;2022-10-31T12:30:13;26.70;71.30
48978;DHT22;34793;48.940;2.618;2022-10-31T12:38:10;27.00;71.50
48978;DHT22;34793;48.940;2.618;2022-10-31T12:40:54;27.10;70.70
48978;DHT22;34793;48.940;2.618;2022-10-31T12:43:36;27.20;70.20
48978;DHT22;34793;48.940;2.618;2022-10-31T12:46:08;27.40;69.60
48978;DHT22;34793;48.940;2.618;2022-10-31T13:01:36;26.80;70.50
48978;DHT22;34793;48.940;2.618;2022-10-31T13:06:52;27.00;70.50
48978;DHT22;34793;48.940;2.618;2022-10-31T13:09:34;27.00;70.40
48978;DHT22;34793;48.940;2.618;2022-10-31T13:12:03;27.00;70.40
48978;DHT22;34793;48.940;2.618;2022-10-31T13:14:32;27.00;70.90
48978;DHT22;34793;48.940;2.618;2022-10-31T13:16:59;27.20;70.40
48978;DHT22;34793;48.940;2.618;2022-10-31T13:19:27;27.00;70.90
48978;DHT22;34793;48.940;2.618;2022-10-31T13:22:06;27.00;71.50
48978;DHT22;34793;48.940;2.618;2022-10-31T13:24:52;26.80;71.70
48978;DHT22;34793;48.940;2.618;2022-10-31T13:32:19;26.80;71.60
48978;DHT22;34793;48.940;2.618;2022-10-31T13:34:46;26.90;71.60
48978;DHT22;34793;48.940;2.618;2022-10-31T13:37:19;27.00;71.40
48978;DHT22;34793;48.940;2.618;2022-10-31T13:45:06;26.40;72.00
48978;DHT22;34793;48.940;2.618;2022-10-31T13:47:32;26.50;72.20
48978;DHT22;34793;48.940;2.618;2022-10-31T13:52:42;26.50;73.10
48978;DHT22;34793;48.940;2.618;2022-10-31T13:55:19;26.30;73.20
48978;DHT22;34793;48.940;2.618;2022-10-31T13:57:52;26.20;73.00
48978;DHT22;34793;48.940;2.618;2022-10-31T14:02:53;26.20;73.30
48978;DHT22;34793;48.940;2.618;2022-10-31T14:05:24;26.40;73.30
48978;DHT22;34793;48.940;2.618;2022-10-31T14:07:51;26.40;73.40
48978;DHT22;34793;48.940;2.618;2022-10-31T14:10:36;26.40;73.60
48978;DHT22;34793;48.940;2.618;2022-10-31T14:13:03;26.40;73.20
48978;DHT22;34793;48.940;2.618;2022-10-31T14:15:29;26.40;73.00
48978;DHT22;34793;48.940;2.618;2022-10-31T14:17:56;26.40;73.10
48978;DHT22;34793;48.940;2.618;2022-10-31T14:20:33;26.30;73.20
48978;DHT22;34793;48.940;2.618;2022-10-31T14:25:37;26.10;74.00
48978;DHT22;34793;48.940;2.618;2022-10-31T14:28:30;26.20;73.80
48978;DHT22;34793;48.940;2.618;2022-10-31T14:30:57;26.20;73.80
48978;DHT22;34793;48.940;2.618;2022-10-31T14:33:24;26.30;73.40
48978;DHT22;34793;48.940;2.618;2022-10-31T14:38:19;26.40;73.60
48978;DHT22;34793;48.940;2.618;2022-10-31T14:41:51;26.50;73.20
48978;DHT22;34793;48.940;2.618;2022-10-31T14:49:11;26.60;73.10
48978;DHT22;34793;48.940;2.618;2022-10-31T14:51:44;26.30;73.70
48978;DHT22;34793;48.940;2.618;2022-10-31T14:54:13;26.00;74.40
48978;DHT22;34793;48.940;2.618;2022-10-31T14:56:43;25.90;74.80
48978;DHT22;34793;48.940;2.618;2022-10-31T14:59:12;26.00;74.70
48978;DHT22;34793;48.940;2.618;2022-10-31T15:01:38;25.90;74.30
48978;DHT22;34793;48.940;2.618;2022-10-31T15:06:39;25.60;75.50
48978;DHT22;34793;48.940;2.618;2022-10-31T15:09:20;25.70;75.40
48978;DHT22;34793;48.940;2.618;2022-10-31T15:11:46;25.60;75.80
48978;DHT22;34793;48.940;2.618;2022-10-31T15:14:25;25.50;75.90
48978;DHT22;34793;48.940;2.618;2022-10-31T15:16:50;25.50;76.00
48978;DHT22;34793;48.940;2.618;2022-10-31T15:19:26;25.40;76.30
48978;DHT22;34793;48.940;2.618;2022-10-31T15:21:53;25.40;76.30
48978;DHT22;34793;48.940;2.618;2022-10-31T15:24:19;25.50;76.00
48978;DHT22;34793;48.940;2.618;2022-10-31T15:26:50;25.50;76.00
48978;DHT22;34793;48.940;2.618;2022-10-31T15:29:17;25.70;75.80
48978;DHT22;34793;48.940;2.618;2022-10-31T15:31:53;25.70;75.50
48978;DHT22;34793;48.940;2.618;2022-10-31T15:34:40;25.80;75.20
48978;DHT22;34793;48.940;2.618;2022-10-31T15:37:04;25.70;75.40
48978;DHT22;34793;48.940;2.618;2022-10-31T15:39:30;25.70;75.60
48978;DHT22;34793;48.940;2.618;2022-10-31T15:41:56;25.80;75.30
48978;DHT22;34793;48.940;2.618;2022-10-31T15:46:51;25.70;75.20
48978;DHT22;34793;48.940;2.618;2022-10-31T15:49:31;25.70;75.30
48978;DHT22;34793;48.940;2.618;2022-10-31T15:52:01;25.70;75.30
48978;DHT22;34793;48.940;2.618;2022-10-31T15:54:28;25.70;75.60
48978;DHT22;34793;48.940;2.618;2022-10-31T15:56:53;25.80;75.30
48978;DHT22;34793;48.940;2.618;2022-10-31T15:59:20;25.80;75.00
48978;DHT22;34793;48.940;2.618;2022-10-31T16:02:00;25.80;75.20
48978;DHT22;34793;48.940;2.618;2022-10-31T16:04:26;25.70;75.30
48978;DHT22;34793;48.940;2.618;2022-10-31T16:09:36;25.60;75.50
48978;DHT22;34793;48.940;2.618;2022-10-31T16:12:01;25.60;75.30
48978;DHT22;34793;48.940;2.618;2022-10-31T16:14:29;25.40;75.70
48978;DHT22;34793;48.940;2.618;2022-10-31T16:16:56;25.40;75.70
48978;DHT22;34793;48.940;2.618;2022-10-31T16:19:23;25.40;75.70
48978;DHT22;34793;48.940;2.618;2022-10-31T16:21:50;25.40;75.70
48978;DHT22;34793;48.940;2.618;2022-10-31T16:24:27;25.30;75.60
48978;DHT22;34793;48.940;2.618;2022-10-31T16:26:54;25.30;76.00
48978;DHT22;34793;48.940;2.618;2022-10-31T16:29:28;25.20;76.10
48978;DHT22;34793;48.940;2.618;2022-10-31T16:31:53;25.30;76.20
48978;DHT22;34793;48.940;2.618;2022-10-31T16:34:20;25.10;76.30
48978;DHT22;34793;48.940;2.618;2022-10-31T16:36:46;24.90;77.00
48978;DHT22;34793;48.940;2.618;2022-10-31T16:39:11;24.60;77.30
48978;DHT22;34793;48.940;2.618;2022-10-31T16:41:40;24.80;77.10
48978;DHT22;34793;48.940;2.618;2022-10-31T16:44:27;25.00;76.90
48978;DHT22;34793;48.940;2.618;2022-10-31T16:47:25;25.10;76.60
48978;DHT22;34793;48.940;2.618;2022-10-31T16:49:43;25.10;76.50
48978;DHT22;34793;48.940;2.618;2022-10-31T16:52:11;25.10;76.50
48978;DHT22;34793;48.940;2.618;2022-10-31T16:54:36;25.10;76.50
48978;DHT22;34793;48.940;2.618;2022-10-31T16:57:03;25.00;76.70
48978;DHT22;34793;48.940;2.618;2022-10-31T16:59:29;24.90;76.60
48978;DHT22;34793;48.940;2.618;2022-10-31T17:01:55;24.80;77.30
48978;DHT22;34793;48.940;2.618;2022-10-31T17:04:20;24.80;77.10
48978;DHT22;34793;48.940;2.618;2022-10-31T17:06:46;24.90;77.40
48978;DHT22;34793;48.940;2.618;2022-10-31T17:09:12;24.80;77.40
48978;DHT22;34793;48.940;2.618;2022-10-31T17:11:39;24.40;78.00
48978;DHT22;34793;48.940;2.618;2022-10-31T17:14:07;24.40;78.70
48978;DHT22;34793;48.940;2.618;2022-10-31T17:16:33;24.40;78.70
48978;DHT22;34793;48.940;2.618;2022-10-31T17:18:59;24.50;78.50
48978;DHT22;34793;48.940;2.618;2022-10-31T17:21:24;24.50;78.70
48978;DHT22;34793;48.940;2.618;2022-10-31T17:23:52;24.50;78.70
48978;DHT22;34793;48.940;2.618;2022-10-31T17:26:18;24.50;78.50
48978;DHT22;34793;48.940;2.618;2022-10-31T17:28:43;24.30;79.50
48978;DHT22;34793;48.940;2.618;2022-10-31T17:31:12;24.20;80.00
48978;DHT22;34793;48.940;2.618;2022-10-31T17:33:42;24.10;80.20
48978;DHT22;34793;48.940;2.618;2022-10-31T17:36:08;23.90;81.00
48978;DHT22;34793;48.940;2.618;2022-10-31T17:38:33;23.60;81.50
48978;DHT22;34793;48.940;2.618;2022-10-31T17:41:03;23.40;81.80
48978;DHT22;34793;48.940;2.618;2022-10-31T17:43:28;23.30;82.20